Abee, Canada
Current Conditions -  °F | °C
As of 8:00 AM on Friday 24 Oct 2014 (Local Time) from CYED Reporting Station
Clear Clear  
Wind Chill: 26°   Ceiling: Unl
Heat Index: 34°   Visibility: 9mi
Dew Point: 30°   Wind: 9mph
Humidity: 87%   Direction: 270°W
Pressure: 29.75"   Gusts: NA
Location:  54.23°N, 113.02°W
Report Text: CYED 241400Z AUTO 27008KT 9SM CLR 01/M01 A2975 RMK SLP100
Loading
Personal Weather Stations






























Interactive Weather Map
Tropical Storm Tracking
New forecast layout! Learn more

10-Day Weather Forecast

Advertisements
Track Severe Weather on mobile